createdAt,value
2023-03-11T00:01:48.392Z,78.20
2023-03-11T00:04:16.321Z,78.80
2023-03-11T00:06:44.151Z,78.60
2023-03-11T00:09:11.957Z,77.90
2023-03-11T00:11:39.833Z,78.50
2023-03-11T00:14:07.669Z,79.40
2023-03-11T00:16:35.512Z,78.60
2023-03-11T00:19:04.754Z,78.30
2023-03-11T00:21:32.676Z,78.00
2023-03-11T00:24:03.607Z,77.90
2023-03-11T00:26:31.527Z,77.30
2023-03-11T00:28:59.361Z,76.90
2023-03-11T00:31:27.482Z,76.90
2023-03-11T00:33:57.260Z,78.10
2023-03-11T00:36:31.517Z,77.90
2023-03-11T00:38:59.859Z,78.20
2023-03-11T00:41:27.777Z,77.90
2023-03-11T00:43:55.945Z,78.40
2023-03-11T00:46:24.007Z,77.70
2023-03-11T00:48:52.427Z,78.80
2023-03-11T00:51:20.340Z,76.70
2023-03-11T00:53:49.545Z,76.30
2023-03-11T00:56:17.690Z,77.60
2023-03-11T00:58:46.088Z,77.00
2023-03-11T01:01:16.744Z,76.40
2023-03-11T01:03:45.392Z,76.10
2023-03-11T01:06:13.682Z,77.30
2023-03-11T01:08:41.750Z,77.20
2023-03-11T01:11:11.196Z,77.70
2023-03-11T01:13:40.243Z,77.40
2023-03-11T01:16:09.360Z,77.40
2023-03-11T01:18:37.317Z,77.00
2023-03-11T01:21:05.742Z,78.10
2023-03-11T01:23:33.843Z,76.60
2023-03-11T01:26:01.745Z,75.50
2023-03-11T01:28:30.906Z,77.00
2023-03-11T01:30:58.798Z,76.90
2023-03-11T01:33:26.638Z,76.70
2023-03-11T01:35:54.614Z,77.30
2023-03-11T01:38:22.609Z,78.10
2023-03-11T01:40:52.969Z,79.20
2023-03-11T01:43:49.929Z,79.70
2023-03-11T01:46:19.487Z,77.30
2023-03-11T01:48:48.972Z,77.20
2023-03-11T01:51:20.694Z,78.00
2023-03-11T01:53:49.052Z,76.60
2023-03-11T01:56:16.961Z,77.60
2023-03-11T01:58:50.068Z,77.70
2023-03-11T02:01:21.479Z,77.50
2023-03-11T02:03:49.809Z,78.10
2023-03-11T02:06:20.239Z,77.40
2023-03-11T02:08:48.860Z,78.10
2023-03-11T02:11:20.671Z,78.00
2023-03-11T02:13:49.978Z,77.70
2023-03-11T02:16:19.480Z,79.00
2023-03-11T02:18:47.476Z,78.10
2023-03-11T02:21:23.702Z,78.20
2023-03-11T02:23:58.775Z,78.90
2023-03-11T02:26:32.748Z,77.10
2023-03-11T02:29:04.232Z,78.10
2023-03-11T02:31:33.612Z,79.10
2023-03-11T02:34:03.746Z,79.70
2023-03-11T02:36:34.185Z,78.70
2023-03-11T02:39:02.371Z,78.30
2023-03-11T02:41:31.219Z,78.70
2023-03-11T02:44:01.581Z,77.10
2023-03-11T02:46:29.825Z,78.20
2023-03-11T02:48:58.326Z,78.80
2023-03-11T02:51:26.143Z,78.90
2023-03-11T02:53:58.810Z,79.20
2023-03-11T02:56:26.873Z,77.30
2023-03-11T02:58:54.683Z,77.30
2023-03-11T03:01:24.022Z,77.90
2023-03-11T03:03:52.079Z,78.20
2023-03-11T03:06:19.961Z,78.40
2023-03-11T03:08:47.843Z,76.70
2023-03-11T03:11:15.708Z,76.40
2023-03-11T03:13:43.521Z,77.50
2023-03-11T03:16:11.395Z,77.80
2023-03-11T03:18:40.674Z,77.90
2023-03-11T03:21:08.485Z,77.70
2023-03-11T03:23:37.720Z,75.30
2023-03-11T03:26:06.152Z,73.80
2023-03-11T03:28:34.234Z,73.40
2023-03-11T03:31:05.806Z,74.50
2023-03-11T03:33:34.036Z,74.40
2023-03-11T03:36:07.972Z,76.60
2023-03-11T03:38:35.967Z,76.20
2023-03-11T03:41:03.837Z,74.90
2023-03-11T03:43:31.685Z,74.10
2023-03-11T03:46:01.228Z,75.10
2023-03-11T03:48:30.011Z,76.90
2023-03-11T03:50:58.225Z,78.20
2023-03-11T03:53:27.454Z,77.50
2023-03-11T03:55:55.539Z,78.00
2023-03-11T03:58:23.451Z,77.50
2023-03-11T04:00:51.261Z,77.40
2023-03-11T04:03:19.133Z,77.70
2023-03-11T04:05:47.150Z,77.80
2023-03-11T04:08:14.985Z,76.80
2023-03-11T04:10:44.386Z,76.60
2023-03-11T04:13:12.466Z,77.00
2023-03-11T04:15:40.600Z,77.20
2023-03-11T04:18:08.436Z,77.00
2023-03-11T04:20:36.253Z,76.80
2023-03-11T04:23:04.151Z,77.90
2023-03-11T04:25:32.013Z,77.80
2023-03-11T04:28:01.200Z,78.10
2023-03-11T04:30:29.114Z,78.30
2023-03-11T04:32:56.948Z,78.40
2023-03-11T04:35:24.883Z,78.30
2023-03-11T04:37:52.797Z,77.40
2023-03-11T04:40:21.002Z,77.10
2023-03-11T04:42:48.864Z,76.30
2023-03-11T04:45:19.039Z,77.40
2023-03-11T04:47:49.236Z,77.00
2023-03-11T04:50:17.896Z,76.80
2023-03-11T04:52:46.038Z,77.80
2023-03-11T04:55:14.385Z,76.90
2023-03-11T04:57:42.586Z,76.90
2023-03-11T05:00:12.427Z,77.30
2023-03-11T05:02:41.991Z,77.20
2023-03-11T05:05:10.953Z,77.70
2023-03-11T05:07:39.122Z,77.90
2023-03-11T05:10:07.853Z,78.20
2023-03-11T05:12:35.670Z,78.20
2023-03-11T05:15:03.656Z,79.30
2023-03-11T05:17:31.602Z,79.50
2023-03-11T05:20:00.805Z,80.00
2023-03-11T05:22:28.710Z,80.60
2023-03-11T05:24:56.531Z,80.90
2023-03-11T05:27:24.328Z,80.90
2023-03-11T05:29:52.235Z,81.70
2023-03-11T05:32:20.455Z,82.10
2023-03-11T05:34:48.647Z,82.00
2023-03-11T05:37:17.895Z,82.20
2023-03-11T05:39:45.828Z,82.90
2023-03-11T05:42:13.749Z,83.40
2023-03-11T05:44:44.217Z,82.90
2023-03-11T05:47:12.070Z,81.60
2023-03-11T05:49:39.923Z,82.10
2023-03-11T05:52:07.780Z,82.70
2023-03-11T05:54:37.105Z,82.90
2023-03-11T05:57:05.106Z,83.30
2023-03-11T05:59:35.313Z,84.00
2023-03-11T06:02:03.379Z,83.00
2023-03-11T06:04:31.702Z,82.20
2023-03-11T06:06:59.603Z,82.50
2023-03-11T06:09:27.452Z,81.70
2023-03-11T06:11:56.615Z,81.00
2023-03-11T06:14:24.612Z,81.00
2023-03-11T06:16:52.437Z,81.20
2023-03-11T06:19:20.430Z,81.10
2023-03-11T06:21:48.288Z,81.50
2023-03-11T06:24:16.159Z,81.00
2023-03-11T06:26:44.045Z,80.90
2023-03-11T06:29:15.271Z,80.90
2023-03-11T06:31:43.258Z,80.60
2023-03-11T06:34:12.163Z,80.90
2023-03-11T06:36:40.064Z,80.60
2023-03-11T06:39:09.136Z,81.00
2023-03-11T06:41:36.978Z,80.30
2023-03-11T06:44:05.030Z,80.30
2023-03-11T06:46:34.192Z,79.80
2023-03-11T06:49:02.025Z,80.20
2023-03-11T06:51:29.900Z,80.10
2023-03-11T06:53:57.999Z,79.70
2023-03-11T06:56:26.089Z,79.80
2023-03-11T06:58:55.165Z,78.90
2023-03-11T07:01:24.810Z,78.00
2023-03-11T07:03:54.191Z,78.00
2023-03-11T07:06:23.982Z,75.80
2023-03-11T07:08:52.779Z,77.00
2023-03-11T07:11:22.787Z,75.00
2023-03-11T07:13:51.256Z,74.90
2023-03-11T07:16:21.390Z,75.40
2023-03-11T07:18:50.847Z,73.60
2023-03-11T07:21:23.021Z,73.20
2023-03-11T07:23:53.834Z,72.70
2023-03-11T07:26:22.540Z,72.90
2023-03-11T07:28:53.375Z,72.90
2023-03-11T07:31:23.407Z,71.40
2023-03-11T07:33:51.863Z,71.40
2023-03-11T07:36:23.026Z,71.90
2023-03-11T07:38:55.526Z,72.00
2023-03-11T07:41:23.386Z,70.10
2023-03-11T07:43:51.248Z,70.50
2023-03-11T07:46:19.933Z,72.00
2023-03-11T07:48:47.915Z,71.00
2023-03-11T07:51:18.434Z,71.70
2023-03-11T07:53:47.736Z,70.50
2023-03-11T07:56:17.368Z,70.20
2023-03-11T07:58:46.047Z,68.90
2023-03-11T08:01:16.294Z,68.80
2023-03-11T08:03:45.081Z,68.50
2023-03-11T08:06:14.421Z,66.60
2023-03-11T08:08:42.371Z,68.90
2023-03-11T08:11:13.094Z,66.80
2023-03-11T08:13:41.303Z,65.40
2023-03-11T08:16:10.998Z,65.70
2023-03-11T08:18:38.906Z,64.60
2023-03-11T08:21:07.406Z,63.70
2023-03-11T08:23:35.633Z,65.20
2023-03-11T08:26:05.000Z,67.30
2023-03-11T08:28:34.313Z,64.70
2023-03-11T08:31:02.557Z,64.40
2023-03-11T08:33:30.787Z,63.90
2023-03-11T08:35:58.846Z,63.90
2023-03-11T08:38:27.000Z,63.50
2023-03-11T08:40:54.867Z,58.70
2023-03-11T08:43:22.826Z,61.20
2023-03-11T08:45:51.987Z,60.70
2023-03-11T08:48:19.967Z,59.00
2023-03-11T08:50:54.313Z,58.60
2023-03-11T08:53:23.057Z,58.70
2023-03-11T08:55:51.826Z,58.10
2023-03-11T08:58:20.260Z,61.80
2023-03-11T09:00:48.834Z,61.20
2023-03-11T09:03:18.032Z,59.90
2023-03-11T09:05:45.957Z,59.90
2023-03-11T09:08:13.806Z,55.80
2023-03-11T09:10:41.775Z,53.80
2023-03-11T09:13:09.570Z,54.60
2023-03-11T09:15:38.834Z,54.30
2023-03-11T09:18:09.106Z,52.90
2023-03-11T09:20:40.469Z,55.10
2023-03-11T09:23:08.708Z,55.10
2023-03-11T09:25:36.590Z,54.20
2023-03-11T09:28:04.595Z,52.60
2023-03-11T09:30:32.676Z,54.20
2023-03-11T09:33:00.641Z,52.60
2023-03-11T09:35:28.852Z,54.80
2023-03-11T09:37:58.026Z,55.80
2023-03-11T09:40:28.112Z,53.70
2023-03-11T09:43:06.581Z,55.50
2023-03-11T09:45:38.224Z,54.30
2023-03-11T09:48:18.282Z,53.60
2023-03-11T09:50:50.480Z,51.50
2023-03-11T09:53:28.537Z,48.90
2023-03-11T09:55:59.258Z,49.70
2023-03-11T09:58:38.792Z,51.90
2023-03-11T10:01:16.198Z,53.50
2023-03-11T10:03:45.298Z,54.90
2023-03-11T10:06:16.844Z,52.80
2023-03-11T10:08:50.004Z,51.00
2023-03-11T10:11:28.577Z,50.50
2023-03-11T10:14:07.095Z,52.60
2023-03-11T10:16:45.171Z,52.10
2023-03-11T10:19:21.347Z,46.40
2023-03-11T10:21:54.462Z,50.30
2023-03-11T10:24:43.168Z,48.40
2023-03-11T10:27:17.174Z,48.00
2023-03-11T10:29:53.961Z,48.70
2023-03-11T10:32:27.269Z,50.50
2023-03-11T10:35:00.861Z,45.50
2023-03-11T10:37:47.906Z,48.10
2023-03-11T10:40:27.070Z,48.90
2023-03-11T10:42:58.070Z,47.20
2023-03-11T10:45:28.234Z,46.60
2023-03-11T10:47:57.793Z,46.30
2023-03-11T10:50:25.698Z,49.70
2023-03-11T10:53:08.599Z,48.50
2023-03-11T10:55:47.014Z,50.20
2023-03-11T10:58:16.995Z,50.40
2023-03-11T11:00:44.845Z,51.20
2023-03-11T11:03:24.718Z,51.30
2023-03-11T11:06:01.946Z,51.00
2023-03-11T11:08:30.066Z,51.40
2023-03-11T11:11:01.612Z,52.00
2023-03-11T11:13:32.353Z,49.10
2023-03-11T11:16:03.406Z,47.10
2023-03-11T11:18:35.116Z,49.00
2023-03-11T11:21:06.601Z,48.50
2023-03-11T11:23:42.337Z,47.40
2023-03-11T11:26:19.402Z,46.80
2023-03-11T11:28:47.448Z,49.30
2023-03-11T11:31:24.462Z,47.50
2023-03-11T11:33:54.014Z,46.60
2023-03-11T11:36:26.450Z,48.00
2023-03-11T11:38:55.556Z,48.80
2023-03-11T11:41:28.056Z,47.60
2023-03-11T11:43:59.752Z,47.80
2023-03-11T11:46:32.375Z,49.10
2023-03-11T11:49:12.321Z,46.20
2023-03-11T11:51:43.473Z,48.30
2023-03-11T11:54:19.003Z,46.10
2023-03-11T11:56:48.268Z,45.70
2023-03-11T11:59:19.762Z,46.30
2023-03-11T12:01:59.242Z,47.60
2023-03-11T12:04:48.723Z,46.30
2023-03-11T12:07:37.492Z,45.80
2023-03-11T12:10:23.368Z,46.00
2023-03-11T12:13:21.430Z,44.80
2023-03-11T12:15:53.269Z,47.50
2023-03-11T12:18:24.989Z,44.80
2023-03-11T12:20:56.039Z,44.70
2023-03-11T12:23:39.075Z,46.40
2023-03-11T12:26:15.502Z,45.30
2023-03-11T12:28:50.421Z,44.10
2023-03-11T12:31:18.552Z,46.40
2023-03-11T12:33:48.704Z,46.00
2023-03-11T12:36:24.982Z,44.60
2023-03-11T12:38:54.597Z,45.10
2023-03-11T12:41:39.907Z,45.40
2023-03-11T12:44:25.673Z,45.50
2023-03-11T12:47:22.432Z,44.40
2023-03-11T12:49:54.690Z,43.40
2023-03-11T12:52:28.422Z,44.70
2023-03-11T12:55:33.056Z,44.00
2023-03-11T12:58:24.744Z,45.00
2023-03-11T13:01:21.256Z,42.80
2023-03-11T13:04:02.732Z,45.00
2023-03-11T13:06:46.414Z,43.40
2023-03-11T13:09:16.847Z,43.90
2023-03-11T13:11:47.080Z,43.90
2023-03-11T13:14:30.786Z,42.40
2023-03-11T13:17:25.510Z,43.30
2023-03-11T13:19:55.799Z,42.80
2023-03-11T13:22:59.189Z,41.00
2023-03-11T13:25:34.039Z,41.60
2023-03-11T13:28:31.383Z,40.80
2023-03-11T13:31:13.585Z,42.50
2023-03-11T13:33:52.268Z,43.80
2023-03-11T13:36:37.406Z,43.00
2023-03-11T13:39:32.804Z,41.10
2023-03-11T13:42:01.306Z,40.80
2023-03-11T13:44:32.811Z,42.40
2023-03-11T13:47:05.032Z,40.90
2023-03-11T13:49:40.968Z,40.10
2023-03-11T13:52:13.680Z,39.30
2023-03-11T13:54:46.469Z,37.20
2023-03-11T13:57:28.199Z,39.10
2023-03-11T13:59:57.325Z,40.10
2023-03-11T14:02:27.431Z,41.90
2023-03-11T14:05:03.557Z,41.90
2023-03-11T14:07:34.315Z,42.80
2023-03-11T14:10:25.786Z,42.10
2023-03-11T14:13:05.284Z,41.30
2023-03-11T14:15:40.786Z,40.70
2023-03-11T14:18:32.533Z,40.60
2023-03-11T14:21:02.653Z,39.40
2023-03-11T14:23:35.805Z,41.30
2023-03-11T14:26:07.383Z,40.60
2023-03-11T14:28:39.686Z,40.30
2023-03-11T14:31:08.103Z,39.20
2023-03-11T14:33:36.022Z,40.10
2023-03-11T14:36:12.730Z,39.80
2023-03-11T14:38:44.344Z,39.10
2023-03-11T14:41:15.005Z,39.30
2023-03-11T14:43:47.135Z,40.10
2023-03-11T14:46:23.183Z,41.40
2023-03-11T14:48:51.958Z,41.30
2023-03-11T14:51:24.156Z,42.40
2023-03-11T14:54:03.720Z,40.60
2023-03-11T14:56:33.039Z,40.30
2023-03-11T14:59:08.853Z,41.90
2023-03-11T15:01:41.548Z,41.20
2023-03-11T15:04:13.138Z,40.90
2023-03-11T15:06:44.442Z,41.30
2023-03-11T15:09:15.197Z,41.20
2023-03-11T15:11:48.137Z,41.00
2023-03-11T15:14:22.668Z,40.50
2023-03-11T15:16:50.753Z,41.50
2023-03-11T15:19:39.502Z,40.10
2023-03-11T15:22:26.784Z,40.70
2023-03-11T15:24:57.059Z,41.10
2023-03-11T15:27:30.975Z,40.90
2023-03-11T15:29:59.806Z,40.30
2023-03-11T15:32:39.921Z,42.60
2023-03-11T15:35:17.422Z,41.20
2023-03-11T15:37:47.630Z,40.30
2023-03-11T15:40:23.410Z,40.80
2023-03-11T15:43:21.346Z,40.80
2023-03-11T15:45:49.889Z,40.80
2023-03-11T15:48:17.701Z,40.80
2023-03-11T15:50:53.859Z,41.10
2023-03-11T15:53:24.688Z,41.40
2023-03-11T15:55:53.751Z,41.20
2023-03-11T15:58:22.379Z,40.10
2023-03-11T16:00:51.913Z,41.90
2023-03-11T16:03:20.467Z,40.70
2023-03-11T16:05:48.740Z,39.50
2023-03-11T16:08:16.610Z,39.10
2023-03-11T16:10:45.775Z,41.70
2023-03-11T16:13:14.599Z,41.70
2023-03-11T16:15:43.491Z,40.40
2023-03-11T16:18:11.863Z,40.10
2023-03-11T16:20:42.789Z,41.00
2023-03-11T16:23:16.813Z,42.00
2023-03-11T16:25:47.502Z,42.70
2023-03-11T16:28:16.655Z,42.70
2023-03-11T16:30:45.108Z,42.70
2023-03-11T16:33:12.924Z,43.90
2023-03-11T16:35:40.767Z,43.50
2023-03-11T16:38:09.397Z,42.60
2023-03-11T16:40:37.632Z,42.90
2023-03-11T16:43:09.022Z,43.70
2023-03-11T16:45:37.630Z,44.50
2023-03-11T16:48:06.568Z,43.70
2023-03-11T16:50:37.307Z,43.30
2023-03-11T16:53:05.440Z,42.90
2023-03-11T16:55:33.563Z,42.30
2023-03-11T16:58:01.424Z,42.30
2023-03-11T17:00:30.730Z,44.20
2023-03-11T17:02:58.716Z,46.50
2023-03-11T17:05:26.776Z,45.00
2023-03-11T17:07:57.158Z,46.80
2023-03-11T17:10:24.982Z,46.70
2023-03-11T17:12:52.829Z,46.40
2023-03-11T17:15:21.028Z,47.30
2023-03-11T17:17:50.647Z,48.40
2023-03-11T17:20:21.524Z,49.10
2023-03-11T17:22:49.542Z,47.70
2023-03-11T17:25:17.523Z,49.50
2023-03-11T17:27:45.333Z,50.00
2023-03-11T17:30:19.425Z,48.70
2023-03-11T17:32:53.814Z,48.60
2023-03-11T17:35:21.727Z,48.30
2023-03-11T17:37:49.540Z,48.50
2023-03-11T17:40:17.557Z,48.90
2023-03-11T17:42:45.346Z,49.30
2023-03-11T17:45:13.510Z,50.50
2023-03-11T17:47:41.335Z,51.30
2023-03-11T17:50:12.149Z,52.50
2023-03-11T17:52:40.019Z,53.10
2023-03-11T17:55:09.045Z,53.60
2023-03-11T17:57:45.115Z,54.00
2023-03-11T18:00:14.884Z,53.00
2023-03-11T18:02:43.348Z,52.40
2023-03-11T18:05:12.713Z,53.10
2023-03-11T18:07:40.567Z,53.40
2023-03-11T18:10:10.049Z,54.80
2023-03-11T18:12:38.578Z,55.00
2023-03-11T18:15:14.232Z,55.60
2023-03-11T18:17:42.126Z,55.60
2023-03-11T18:20:13.589Z,56.40
2023-03-11T18:22:44.476Z,56.70
2023-03-11T18:25:13.931Z,57.40
2023-03-11T18:27:41.908Z,57.80
2023-03-11T18:30:11.793Z,57.90
2023-03-11T18:32:39.680Z,58.20
2023-03-11T18:35:08.548Z,58.30
2023-03-11T18:37:37.774Z,58.10
2023-03-11T18:40:07.158Z,58.10
2023-03-11T18:42:35.218Z,58.40
2023-03-11T18:45:03.206Z,58.60
2023-03-11T18:47:34.853Z,58.90
2023-03-11T18:50:03.373Z,59.20
2023-03-11T18:52:31.271Z,59.30
2023-03-11T18:55:00.645Z,59.60
2023-03-11T18:57:28.494Z,59.70
2023-03-11T18:59:56.374Z,60.10
2023-03-11T19:02:24.253Z,59.20
2023-03-11T19:04:52.169Z,59.50
2023-03-11T19:07:20.033Z,59.40
2023-03-11T19:09:49.845Z,60.10
2023-03-11T19:12:19.059Z,60.30
2023-03-11T19:14:47.284Z,60.40
2023-03-11T19:17:16.473Z,60.90
2023-03-11T19:19:44.762Z,61.20
2023-03-11T19:22:12.837Z,61.30
2023-03-11T19:24:40.907Z,61.70
2023-03-11T19:27:08.771Z,61.90
2023-03-11T19:29:38.038Z,61.80
2023-03-11T19:32:06.786Z,62.20
2023-03-11T19:34:34.761Z,62.70
2023-03-11T19:37:02.663Z,62.70
2023-03-11T19:39:30.589Z,63.30
2023-03-11T19:41:58.884Z,63.50
2023-03-11T19:44:26.737Z,63.50
2023-03-11T19:46:55.934Z,64.50
2023-03-11T19:49:24.008Z,64.90
2023-03-11T19:51:52.910Z,65.40
2023-03-11T19:54:21.196Z,67.00
2023-03-11T19:56:49.407Z,68.10
2023-03-11T19:59:17.480Z,69.10
2023-03-11T20:01:45.537Z,69.80
2023-03-11T20:04:15.268Z,70.30
2023-03-11T20:06:43.983Z,70.70
2023-03-11T20:09:13.107Z,71.40
2023-03-11T20:11:41.214Z,72.00
2023-03-11T20:14:10.742Z,72.30
2023-03-11T20:16:39.175Z,72.80
2023-03-11T20:19:08.459Z,72.90
2023-03-11T20:21:40.612Z,73.10
2023-03-11T20:24:09.625Z,73.20
2023-03-11T20:26:38.347Z,73.10
2023-03-11T20:29:06.632Z,73.80
2023-03-11T20:31:34.862Z,74.30
2023-03-11T20:34:02.913Z,74.30
2023-03-11T20:36:33.079Z,74.40
2023-03-11T20:39:02.835Z,74.60
2023-03-11T20:41:35.758Z,75.40
2023-03-11T20:44:04.060Z,75.90
2023-03-11T20:46:33.977Z,76.70
2023-03-11T20:49:02.182Z,77.10
2023-03-11T20:51:30.155Z,77.60
2023-03-11T20:53:58.181Z,78.00
2023-03-11T20:56:27.809Z,77.90
2023-03-11T20:58:58.994Z,77.70
2023-03-11T21:01:28.745Z,77.80
2023-03-11T21:03:58.215Z,78.40
2023-03-11T21:06:29.424Z,78.60
2023-03-11T21:08:59.315Z,78.10
2023-03-11T21:11:29.215Z,78.20
2023-03-11T21:13:57.232Z,78.50
2023-03-11T21:16:26.924Z,78.70
2023-03-11T21:18:55.336Z,78.80
2023-03-11T21:21:23.404Z,79.10
2023-03-11T21:23:51.409Z,79.10
2023-03-11T21:26:19.709Z,79.30
2023-03-11T21:28:48.868Z,79.80
2023-03-11T21:31:18.514Z,79.50
2023-03-11T21:33:47.245Z,79.30
2023-03-11T21:36:16.872Z,79.20
2023-03-11T21:38:45.276Z,79.50
2023-03-11T21:41:16.460Z,79.80
2023-03-11T21:43:45.405Z,79.80
2023-03-11T21:46:17.929Z,79.50
2023-03-11T21:48:46.515Z,79.60
2023-03-11T21:51:14.501Z,79.90
2023-03-11T21:53:42.522Z,79.40
2023-03-11T21:56:10.916Z,79.30
2023-03-11T21:58:38.855Z,79.60
2023-03-11T22:01:08.153Z,79.60
2023-03-11T22:03:38.014Z,79.40
2023-03-11T22:06:09.124Z,79.20
2023-03-11T22:08:37.176Z,78.60
2023-03-11T22:11:08.853Z,78.60
2023-03-11T22:13:37.734Z,79.30
2023-03-11T22:16:07.691Z,79.40
2023-03-11T22:18:37.228Z,79.70
2023-03-11T22:21:06.871Z,80.00
2023-03-11T22:23:35.895Z,79.80
2023-03-11T22:26:03.950Z,80.00
2023-03-11T22:28:31.762Z,80.00
2023-03-11T22:31:05.945Z,80.20
2023-03-11T22:33:34.469Z,80.10
2023-03-11T22:36:07.757Z,80.40
2023-03-11T22:38:36.813Z,80.50
2023-03-11T22:41:07.476Z,80.60
2023-03-11T22:43:36.003Z,80.90
2023-03-11T22:46:05.334Z,81.80
2023-03-11T22:48:33.903Z,81.70
2023-03-11T22:51:03.187Z,82.00
2023-03-11T22:53:31.214Z,80.90
2023-03-11T22:55:59.055Z,80.70
2023-03-11T22:58:26.852Z,80.30
2023-03-11T23:00:54.658Z,80.80
2023-03-11T23:03:22.539Z,80.80
2023-03-11T23:05:50.390Z,80.70
2023-03-11T23:08:19.567Z,81.20
2023-03-11T23:10:48.838Z,81.70
2023-03-11T23:13:17.178Z,82.00
2023-03-11T23:15:47.250Z,82.30
2023-03-11T23:18:16.881Z,82.20
2023-03-11T23:20:46.078Z,82.50
2023-03-11T23:23:14.372Z,82.40
2023-03-11T23:25:43.552Z,82.80
2023-03-11T23:28:11.361Z,83.10
2023-03-11T23:30:41.115Z,83.10
2023-03-11T23:33:09.256Z,83.00
2023-03-11T23:35:41.451Z,83.10
2023-03-11T23:38:09.482Z,82.80
2023-03-11T23:40:37.426Z,82.60
2023-03-11T23:43:06.621Z,82.20
2023-03-11T23:45:34.482Z,81.50
2023-03-11T23:48:02.477Z,81.40
2023-03-11T23:50:30.286Z,81.40
2023-03-11T23:52:58.102Z,81.40
2023-03-11T23:55:25.938Z,81.20
2023-03-11T23:57:53.757Z,81.30
